AirNav   Everest Fuels
 
 426 users online  

MS69 Falcon Field Airport
Star, Mississippi, USA

GOING TO STAR?


FAA INFORMATION EFFECTIVE 07 OCTOBER 2021

Location

FAA Identifier: MS69
Lat/Long: 32-06-31.5450N 090-02-47.3000W
32-06.525750N 090-02.788333W
32.1087625,-90.0464722
(estimated)
Elevation: 415 ft. / 126 m (estimated)
Variation: 03E (1985)
From city: 1 mile NW of STAR, MS
Time zone: UTC -5 (UTC -6 during Standard Time)
Zip code: 39073

Airport Operations

Airport use: Private use, PERSONAL USE.
Activation date: 11/1978
Control tower: no
ARTCC: MEMPHIS CENTER
FSS: GREENWOOD FLIGHT SERVICE STATION
Attendance: IREG
Wind indicator: yes
Segmented circle: no
Landing fee: yes

Airport Communications

WX ASOS at JAN (12 nm N): 121.05 (601-932-2822)
WX ASOS at HKS (16 nm NW): 120.625 (601-354-4037)

Nearby radio navigation aids

VOR radial/distance  VOR name  Freq  Var
MHZr173/19.7MAGNOLIA VORTAC113.2001W

Airport Services

Runway Information

Runway N/S

Dimensions: 2800 x 75 ft. / 853 x 23 m
Surface: turf
Operational restrictions: 2/20
RUNWAY N  RUNWAY S
Traffic pattern: leftleft
Obstructions: 349 ft. tower, lighted, 2000 ft. from runwaytrees

Airport Ownership and Management from official FAA records

Ownership: Privately-owned
Owner: JOSEPH FABIAN
1285 MUSE ROAD
FLORENCE, MS 39073
Phone 601-845-2338
Manager: JOSEPH FABIAN
1285 MUSE ROAD
FLORENCE, MS 39073
Phone 601-845-2338

Airport Operational Statistics

Aircraft based on the field: 1
Single engine airplanes: 1
    

Additional Remarks

FENCE ALONG BOTH EDGES WITHIN 25 FT.
FOR CD CTC JACKSON APCH AT 601-965-4625, WHEN APCH CLSD CTC MEMPHIS ARTCC AT 901-368-8453/8449.

Instrument Procedures

There are no published instrument procedures at MS69.

Some nearby airports with instrument procedures:

KJAN - Jackson-Medgar Wiley Evers International Airport (12 nm N)
KHKS - Hawkins Field Airport (16 nm NW)
17M - Magee Municipal Airport (19 nm SE)
KMBO - Bruce Campbell Field Airport (20 nm N)
M11 - Copiah County Airport (20 nm SW)
 
Loc | Ops | Rwys | IFR | FBO | Links
Com | Nav | Svcs | Stats | Notes
Area around MS69 (Falcon Field Airport)
 
Road maps at: MapQuest Bing Google
 
Aerial photo
WARNING: Photo may not be current or correct
Aerial photo of MS69 (Falcon Field Airport)
Photo taken 08-Feb-2004

Do you have a better or more recent aerial photo of Falcon Field Airport that you would like to share? If so, please send us your photo.

 
Sectional chart

 
Airport distance calculator
Flying to Falcon Field Airport? Find the distance to fly.

From to MS69

Sunrise and sunset
Times for 28-Oct-2021
 Local
(UTC-5)
 Zulu
(UTC)
Morning civil twilight06:5011:50
Sunrise07:1512:15
Sunset18:1323:13
Evening civil twilight18:3823:38

Current date and time
Zulu (UTC)  28-Oct-2021 06:16:34
Local (UTC-5)  28-Oct-2021 01:16:34
 
METAR
KJAN 
13nm N 
280554Z AUTO 00000KT 10SM OVC050 18/16 A2955 RMK AO2 RAE34 SLP003 P0001 60030 T01780161 10206 20178 402330144 58002
KHKS 
16nm NW 
280353Z AUTO 20006KT 4SM -RA BR OVC008 21/19 A2956 RMK AO2 CIG 006V012 SLP002 P0005 T02060194
KMBO 
20nm N 
271015Z AUTO VRB04KT 10SM CLR 16/13 A2986 RMK AO2
KJVW 
22nm NW 
280555Z AUTO 00000KT 10SM OVC060 18/18 A2955 RMK AO2
TAF
KJAN 
13nm N 
280520Z 2806/2906 27010G19KT P6SM -RA VCSH FEW005 FEW019 OVC027 FM280800 23008KT P6SM BKN035 FM281500 23012G20KT P6SM BKN035 FM282200 24013G24KT P6SM -RA OVC025
KHKS 
16nm NW 
280520Z 2806/2906 20006KT P6SM VCSH OVC008 FM280800 23008KT P6SM BKN035 FM281500 23012G20KT P6SM BKN035 FM282200 24013G24KT P6SM -RA OVC025
NOTAMs
Click for the latest NOTAMs
NOTAMs are issued by the DoD/FAA and will open in a separate window not controlled by AirNav.

 

 
 

Would you like to see your business listed on this page?

 If your business provides an interesting product or service to pilots, flight crews, aircraft, or users of the Falcon Field Airport, you should consider listing it here.  To start the listing process, click on the button below
 
Add a business
 

Other Pages about Falcon Field Airport

Update a link
 
Copyright © AirNav, LLC. All rights reserved. Privacy Policy  Contact